sensor_id;sensor_type;location;lat;lon;timestamp;P1;durP1;ratioP1;P2;durP2;ratioP2
61460;SDS011;47325;50.506;4.472;2023-02-28T00:03:50;6.80;;;4.10;;
61460;SDS011;47325;50.506;4.472;2023-02-28T00:09:34;5.40;;;4.10;;
61460;SDS011;47325;50.506;4.472;2023-02-28T00:15:18;6.30;;;4.30;;
61460;SDS011;47325;50.506;4.472;2023-02-28T00:21:02;6.10;;;4.30;;
61460;SDS011;47325;50.506;4.472;2023-02-28T00:26:46;5.40;;;4.00;;
61460;SDS011;47325;50.506;4.472;2023-02-28T00:32:30;7.50;;;4.20;;
61460;SDS011;47325;50.506;4.472;2023-02-28T00:38:14;6.30;;;4.10;;
61460;SDS011;47325;50.506;4.472;2023-02-28T00:43:58;6.30;;;4.20;;
61460;SDS011;47325;50.506;4.472;2023-02-28T00:49:41;6.20;;;4.00;;
61460;SDS011;47325;50.506;4.472;2023-02-28T00:55:25;5.50;;;3.80;;
61460;SDS011;47325;50.506;4.472;2023-02-28T01:01:09;7.50;;;4.00;;
61460;SDS011;47325;50.506;4.472;2023-02-28T01:06:54;5.80;;;3.80;;
61460;SDS011;47325;50.506;4.472;2023-02-28T01:12:38;5.80;;;4.00;;
61460;SDS011;47325;50.506;4.472;2023-02-28T01:18:21;5.80;;;4.00;;
61460;SDS011;47325;50.506;4.472;2023-02-28T01:24:06;5.70;;;3.70;;
61460;SDS011;47325;50.506;4.472;2023-02-28T01:29:50;7.20;;;4.10;;
61460;SDS011;47325;50.506;4.472;2023-02-28T01:35:35;5.40;;;4.10;;
61460;SDS011;47325;50.506;4.472;2023-02-28T01:41:20;5.30;;;3.90;;
61460;SDS011;47325;50.506;4.472;2023-02-28T01:47:06;6.10;;;4.20;;
61460;SDS011;47325;50.506;4.472;2023-02-28T01:52:50;5.70;;;4.00;;
61460;SDS011;47325;50.506;4.472;2023-02-28T01:58:34;5.80;;;4.10;;
61460;SDS011;47325;50.506;4.472;2023-02-28T02:04:19;8.30;;;4.40;;
61460;SDS011;47325;50.506;4.472;2023-02-28T02:10:06;6.10;;;4.10;;
61460;SDS011;47325;50.506;4.472;2023-02-28T02:15:53;6.40;;;3.90;;
61460;SDS011;47325;50.506;4.472;2023-02-28T02:21:46;7.70;;;4.60;;
61460;SDS011;47325;50.506;4.472;2023-02-28T02:33:46;5.50;;;3.90;;
61460;SDS011;47325;50.506;4.472;2023-02-28T02:39:35;6.80;;;4.20;;
61460;SDS011;47325;50.506;4.472;2023-02-28T02:45:23;7.40;;;4.00;;
61460;SDS011;47325;50.506;4.472;2023-02-28T02:51:09;6.40;;;4.40;;
61460;SDS011;47325;50.506;4.472;2023-02-28T02:56:55;6.50;;;4.10;;
61460;SDS011;47325;50.506;4.472;2023-02-28T03:02:41;7.60;;;4.10;;
61460;SDS011;47325;50.506;4.472;2023-02-28T03:08:26;5.70;;;4.30;;
61460;SDS011;47325;50.506;4.472;2023-02-28T03:14:16;6.60;;;4.10;;
61460;SDS011;47325;50.506;4.472;2023-02-28T03:20:07;7.20;;;4.30;;
61460;SDS011;47325;50.506;4.472;2023-02-28T03:25:56;6.40;;;4.30;;
61460;SDS011;47325;50.506;4.472;2023-02-28T03:31:43;5.70;;;4.20;;
61460;SDS011;47325;50.506;4.472;2023-02-28T03:37:28;5.90;;;4.20;;
61460;SDS011;47325;50.506;4.472;2023-02-28T03:43:14;6.20;;;4.50;;
61460;SDS011;47325;50.506;4.472;2023-02-28T03:49:02;5.90;;;4.00;;
61460;SDS011;47325;50.506;4.472;2023-02-28T03:54:50;6.10;;;4.40;;
61460;SDS011;47325;50.506;4.472;2023-02-28T04:00:37;7.60;;;4.30;;
61460;SDS011;47325;50.506;4.472;2023-02-28T04:06:22;6.00;;;4.40;;
61460;SDS011;47325;50.506;4.472;2023-02-28T04:12:06;5.80;;;4.30;;
61460;SDS011;47325;50.506;4.472;2023-02-28T04:17:51;6.00;;;4.30;;
61460;SDS011;47325;50.506;4.472;2023-02-28T04:23:35;7.30;;;4.60;;
61460;SDS011;47325;50.506;4.472;2023-02-28T04:29:19;7.30;;;4.80;;
61460;SDS011;47325;50.506;4.472;2023-02-28T04:35:04;6.30;;;4.40;;
61460;SDS011;47325;50.506;4.472;2023-02-28T04:40:48;5.50;;;4.10;;
61460;SDS011;47325;50.506;4.472;2023-02-28T04:46:31;7.10;;;4.60;;
61460;SDS011;47325;50.506;4.472;2023-02-28T04:52:15;6.20;;;4.20;;
61460;SDS011;47325;50.506;4.472;2023-02-28T04:57:59;7.30;;;4.40;;
61460;SDS011;47325;50.506;4.472;2023-02-28T05:03:42;5.70;;;4.30;;
61460;SDS011;47325;50.506;4.472;2023-02-28T05:09:26;6.50;;;4.40;;
61460;SDS011;47325;50.506;4.472;2023-02-28T05:15:11;7.50;;;4.70;;
61460;SDS011;47325;50.506;4.472;2023-02-28T05:20:56;7.90;;;4.50;;
61460;SDS011;47325;50.506;4.472;2023-02-28T05:26:40;7.30;;;4.60;;
61460;SDS011;47325;50.506;4.472;2023-02-28T05:32:24;5.70;;;4.70;;
61460;SDS011;47325;50.506;4.472;2023-02-28T05:38:08;7.50;;;4.70;;
61460;SDS011;47325;50.506;4.472;2023-02-28T05:43:52;7.10;;;4.50;;
61460;SDS011;47325;50.506;4.472;2023-02-28T05:49:36;8.00;;;4.90;;
61460;SDS011;47325;50.506;4.472;2023-02-28T05:55:20;7.60;;;5.10;;
61460;SDS011;47325;50.506;4.472;2023-02-28T06:01:19;9.60;;;5.20;;
61460;SDS011;47325;50.506;4.472;2023-02-28T06:06:54;7.00;;;5.30;;
61460;SDS011;47325;50.506;4.472;2023-02-28T06:12:38;6.60;;;4.60;;
61460;SDS011;47325;50.506;4.472;2023-02-28T06:18:22;7.30;;;5.20;;
61460;SDS011;47325;50.506;4.472;2023-02-28T06:24:06;8.00;;;5.30;;
61460;SDS011;47325;50.506;4.472;2023-02-28T06:29:53;7.40;;;5.30;;
61460;SDS011;47325;50.506;4.472;2023-02-28T06:35:37;7.60;;;5.30;;
61460;SDS011;47325;50.506;4.472;2023-02-28T06:41:21;7.80;;;5.20;;
61460;SDS011;47325;50.506;4.472;2023-02-28T06:47:05;7.20;;;5.20;;
61460;SDS011;47325;50.506;4.472;2023-02-28T06:52:49;7.80;;;5.00;;
61460;SDS011;47325;50.506;4.472;2023-02-28T06:58:32;9.30;;;5.40;;
61460;SDS011;47325;50.506;4.472;2023-02-28T07:04:16;6.50;;;4.90;;
61460;SDS011;47325;50.506;4.472;2023-02-28T07:10:00;7.50;;;5.20;;
61460;SDS011;47325;50.506;4.472;2023-02-28T07:15:44;8.20;;;5.30;;
61460;SDS011;47325;50.506;4.472;2023-02-28T07:21:33;6.40;;;5.10;;
61460;SDS011;47325;50.506;4.472;2023-02-28T07:27:17;10.60;;;5.40;;
61460;SDS011;47325;50.506;4.472;2023-02-28T07:33:00;10.40;;;5.60;;
61460;SDS011;47325;50.506;4.472;2023-02-28T07:38:45;8.10;;;5.40;;
61460;SDS011;47325;50.506;4.472;2023-02-28T07:44:32;8.30;;;5.30;;
61460;SDS011;47325;50.506;4.472;2023-02-28T07:50:16;9.50;;;5.40;;
61460;SDS011;47325;50.506;4.472;2023-02-28T07:56:00;8.60;;;5.80;;
61460;SDS011;47325;50.506;4.472;2023-02-28T08:01:45;9.20;;;5.60;;
61460;SDS011;47325;50.506;4.472;2023-02-28T08:07:29;8.40;;;5.70;;
61460;SDS011;47325;50.506;4.472;2023-02-28T08:13:12;7.70;;;5.60;;
61460;SDS011;47325;50.506;4.472;2023-02-28T08:18:56;10.00;;;5.60;;
61460;SDS011;47325;50.506;4.472;2023-02-28T08:24:40;8.60;;;5.60;;
61460;SDS011;47325;50.506;4.472;2023-02-28T08:30:24;9.30;;;5.50;;
61460;SDS011;47325;50.506;4.472;2023-02-28T08:36:08;8.70;;;5.80;;
61460;SDS011;47325;50.506;4.472;2023-02-28T08:41:52;8.70;;;5.40;;
61460;SDS011;47325;50.506;4.472;2023-02-28T08:47:50;7.80;;;5.30;;
61460;SDS011;47325;50.506;4.472;2023-02-28T08:53:36;7.40;;;5.20;;
61460;SDS011;47325;50.506;4.472;2023-02-28T08:59:20;8.40;;;5.30;;
61460;SDS011;47325;50.506;4.472;2023-02-28T09:05:04;8.20;;;5.30;;
61460;SDS011;47325;50.506;4.472;2023-02-28T09:10:48;8.60;;;5.50;;
61460;SDS011;47325;50.506;4.472;2023-02-28T09:16:32;8.80;;;5.40;;
61460;SDS011;47325;50.506;4.472;2023-02-28T09:22:18;7.40;;;5.10;;
61460;SDS011;47325;50.506;4.472;2023-02-28T09:28:02;6.50;;;4.90;;
61460;SDS011;47325;50.506;4.472;2023-02-28T09:33:46;5.90;;;4.60;;
61460;SDS011;47325;50.506;4.472;2023-02-28T09:39:30;6.00;;;4.30;;
61460;SDS011;47325;50.506;4.472;2023-02-28T09:45:16;7.00;;;4.90;;
61460;SDS011;47325;50.506;4.472;2023-02-28T09:51:04;6.90;;;4.80;;
61460;SDS011;47325;50.506;4.472;2023-02-28T09:56:49;5.60;;;4.30;;
61460;SDS011;47325;50.506;4.472;2023-02-28T10:02:41;6.40;;;4.20;;
61460;SDS011;47325;50.506;4.472;2023-02-28T10:08:29;5.30;;;4.00;;
61460;SDS011;47325;50.506;4.472;2023-02-28T10:14:16;5.50;;;4.00;;
61460;SDS011;47325;50.506;4.472;2023-02-28T10:20:02;5.30;;;3.60;;
61460;SDS011;47325;50.506;4.472;2023-02-28T10:25:50;7.20;;;3.70;;
61460;SDS011;47325;50.506;4.472;2023-02-28T10:31:37;5.20;;;3.50;;
61460;SDS011;47325;50.506;4.472;2023-02-28T10:37:22;7.70;;;3.60;;
61460;SDS011;47325;50.506;4.472;2023-02-28T10:43:07;5.70;;;3.30;;
61460;SDS011;47325;50.506;4.472;2023-02-28T10:49:02;7.50;;;3.20;;
61460;SDS011;47325;50.506;4.472;2023-02-28T10:54:47;7.50;;;3.50;;
61460;SDS011;47325;50.506;4.472;2023-02-28T11:00:35;4.40;;;2.90;;
61460;SDS011;47325;50.506;4.472;2023-02-28T11:06:20;5.00;;;3.20;;
61460;SDS011;47325;50.506;4.472;2023-02-28T11:12:20;4.90;;;3.00;;
61460;SDS011;47325;50.506;4.472;2023-02-28T11:17:58;4.90;;;2.60;;
61460;SDS011;47325;50.506;4.472;2023-02-28T11:23:43;6.20;;;2.90;;
61460;SDS011;47325;50.506;4.472;2023-02-28T11:29:27;6.40;;;2.90;;
61460;SDS011;47325;50.506;4.472;2023-02-28T11:35:17;4.70;;;2.50;;
61460;SDS011;47325;50.506;4.472;2023-02-28T11:41:07;4.00;;;2.40;;
61460;SDS011;47325;50.506;4.472;2023-02-28T11:46:56;3.20;;;2.10;;
61460;SDS011;47325;50.506;4.472;2023-02-28T11:52:43;4.50;;;2.30;;
61460;SDS011;47325;50.506;4.472;2023-02-28T11:58:33;2.60;;;2.20;;
61460;SDS011;47325;50.506;4.472;2023-02-28T12:04:21;4.00;;;2.10;;
61460;SDS011;47325;50.506;4.472;2023-02-28T12:10:10;3.60;;;2.20;;
61460;SDS011;47325;50.506;4.472;2023-02-28T12:16:05;3.70;;;1.90;;
61460;SDS011;47325;50.506;4.472;2023-02-28T12:27:53;3.30;;;2.20;;
61460;SDS011;47325;50.506;4.472;2023-02-28T12:33:39;6.40;;;2.80;;
61460;SDS011;47325;50.506;4.472;2023-02-28T12:39:26;8.60;;;2.60;;
61460;SDS011;47325;50.506;4.472;2023-02-28T12:45:31;6.00;;;2.50;;
61460;SDS011;47325;50.506;4.472;2023-02-28T12:51:20;4.80;;;2.30;;
61460;SDS011;47325;50.506;4.472;2023-02-28T12:57:06;5.60;;;2.30;;
61460;SDS011;47325;50.506;4.472;2023-02-28T13:02:56;5.90;;;2.10;;
61460;SDS011;47325;50.506;4.472;2023-02-28T13:14:48;4.90;;;2.10;;
61460;SDS011;47325;50.506;4.472;2023-02-28T13:20:33;5.00;;;2.00;;
61460;SDS011;47325;50.506;4.472;2023-02-28T13:26:18;5.80;;;1.90;;
61460;SDS011;47325;50.506;4.472;2023-02-28T13:38:01;4.80;;;1.70;;
61460;SDS011;47325;50.506;4.472;2023-02-28T13:49:46;4.10;;;1.90;;
61460;SDS011;47325;50.506;4.472;2023-02-28T13:55:32;3.60;;;1.80;;
61460;SDS011;47325;50.506;4.472;2023-02-28T14:07:26;5.10;;;2.00;;
61460;SDS011;47325;50.506;4.472;2023-02-28T14:19:24;2.00;;;1.60;;
61460;SDS011;47325;50.506;4.472;2023-02-28T14:25:08;2.80;;;1.70;;
61460;SDS011;47325;50.506;4.472;2023-02-28T14:31:01;2.30;;;1.50;;
61460;SDS011;47325;50.506;4.472;2023-02-28T14:36:50;3.80;;;1.50;;
61460;SDS011;47325;50.506;4.472;2023-02-28T14:42:37;1.90;;;1.40;;
61460;SDS011;47325;50.506;4.472;2023-02-28T14:48:21;1.90;;;1.30;;
61460;SDS011;47325;50.506;4.472;2023-02-28T14:54:12;2.80;;;1.40;;
61460;SDS011;47325;50.506;4.472;2023-02-28T15:00:04;2.40;;;1.40;;
61460;SDS011;47325;50.506;4.472;2023-02-28T15:05:55;2.50;;;1.50;;
61460;SDS011;47325;50.506;4.472;2023-02-28T15:11:39;3.50;;;1.50;;
61460;SDS011;47325;50.506;4.472;2023-02-28T15:17:23;3.00;;;1.50;;
61460;SDS011;47325;50.506;4.472;2023-02-28T15:23:08;3.20;;;1.60;;
61460;SDS011;47325;50.506;4.472;2023-02-28T15:28:54;2.80;;;1.40;;
61460;SDS011;47325;50.506;4.472;2023-02-28T15:34:42;2.10;;;1.40;;
61460;SDS011;47325;50.506;4.472;2023-02-28T15:40:30;3.10;;;1.60;;
61460;SDS011;47325;50.506;4.472;2023-02-28T15:46:14;2.90;;;1.30;;
61460;SDS011;47325;50.506;4.472;2023-02-28T15:51:59;2.00;;;1.60;;
61460;SDS011;47325;50.506;4.472;2023-02-28T15:57:43;3.20;;;1.50;;
61460;SDS011;47325;50.506;4.472;2023-02-28T16:03:34;2.70;;;1.70;;
61460;SDS011;47325;50.506;4.472;2023-02-28T16:09:21;2.20;;;1.60;;
61460;SDS011;47325;50.506;4.472;2023-02-28T16:15:06;2.40;;;1.50;;
61460;SDS011;47325;50.506;4.472;2023-02-28T16:20:51;2.70;;;1.60;;
61460;SDS011;47325;50.506;4.472;2023-02-28T16:26:34;2.20;;;1.70;;
61460;SDS011;47325;50.506;4.472;2023-02-28T16:32:18;2.70;;;2.10;;
61460;SDS011;47325;50.506;4.472;2023-02-28T16:38:04;2.40;;;1.80;;
61460;SDS011;47325;50.506;4.472;2023-02-28T16:43:48;3.40;;;1.80;;
61460;SDS011;47325;50.506;4.472;2023-02-28T16:49:34;3.60;;;1.90;;
61460;SDS011;47325;50.506;4.472;2023-02-28T16:55:18;3.80;;;2.00;;
61460;SDS011;47325;50.506;4.472;2023-02-28T17:01:02;3.40;;;2.00;;
61460;SDS011;47325;50.506;4.472;2023-02-28T17:06:47;2.90;;;2.30;;
61460;SDS011;47325;50.506;4.472;2023-02-28T17:12:30;3.30;;;2.20;;
61460;SDS011;47325;50.506;4.472;2023-02-28T17:18:15;3.20;;;2.30;;
61460;SDS011;47325;50.506;4.472;2023-02-28T17:24:00;2.90;;;2.10;;
61460;SDS011;47325;50.506;4.472;2023-02-28T17:29:44;2.60;;;2.10;;
61460;SDS011;47325;50.506;4.472;2023-02-28T17:35:28;3.30;;;2.20;;
61460;SDS011;47325;50.506;4.472;2023-02-28T17:41:13;2.90;;;2.20;;
61460;SDS011;47325;50.506;4.472;2023-02-28T17:46:58;3.20;;;2.50;;
61460;SDS011;47325;50.506;4.472;2023-02-28T17:52:42;4.40;;;2.30;;
61460;SDS011;47325;50.506;4.472;2023-02-28T17:58:26;3.90;;;2.50;;
61460;SDS011;47325;50.506;4.472;2023-02-28T18:04:10;3.90;;;2.70;;
61460;SDS011;47325;50.506;4.472;2023-02-28T18:09:54;3.20;;;2.50;;
61460;SDS011;47325;50.506;4.472;2023-02-28T18:15:38;3.90;;;2.70;;
61460;SDS011;47325;50.506;4.472;2023-02-28T18:21:23;3.50;;;2.60;;
61460;SDS011;47325;50.506;4.472;2023-02-28T18:27:07;3.50;;;2.80;;
61460;SDS011;47325;50.506;4.472;2023-02-28T18:32:51;3.50;;;2.70;;
61460;SDS011;47325;50.506;4.472;2023-02-28T18:38:37;3.40;;;2.70;;
61460;SDS011;47325;50.506;4.472;2023-02-28T18:44:21;3.30;;;2.50;;
61460;SDS011;47325;50.506;4.472;2023-02-28T18:50:07;4.10;;;2.90;;
61460;SDS011;47325;50.506;4.472;2023-02-28T18:55:51;4.00;;;2.90;;
61460;SDS011;47325;50.506;4.472;2023-02-28T19:01:34;4.90;;;3.00;;
61460;SDS011;47325;50.506;4.472;2023-02-28T19:07:18;4.60;;;3.00;;
61460;SDS011;47325;50.506;4.472;2023-02-28T19:13:02;3.70;;;2.80;;
61460;SDS011;47325;50.506;4.472;2023-02-28T19:18:46;4.70;;;3.00;;
61460;SDS011;47325;50.506;4.472;2023-02-28T19:24:30;4.10;;;2.90;;
61460;SDS011;47325;50.506;4.472;2023-02-28T19:30:14;4.90;;;3.20;;
61460;SDS011;47325;50.506;4.472;2023-02-28T19:35:58;5.30;;;3.20;;
61460;SDS011;47325;50.506;4.472;2023-02-28T19:41:43;5.00;;;2.90;;
61460;SDS011;47325;50.506;4.472;2023-02-28T19:47:26;3.80;;;2.90;;
61460;SDS011;47325;50.506;4.472;2023-02-28T19:53:10;4.20;;;2.80;;
61460;SDS011;47325;50.506;4.472;2023-02-28T19:58:54;4.90;;;3.20;;
61460;SDS011;47325;50.506;4.472;2023-02-28T20:04:39;4.30;;;3.10;;
61460;SDS011;47325;50.506;4.472;2023-02-28T20:10:24;4.70;;;3.20;;
61460;SDS011;47325;50.506;4.472;2023-02-28T20:16:09;4.10;;;3.10;;
61460;SDS011;47325;50.506;4.472;2023-02-28T20:21:53;5.10;;;3.30;;
61460;SDS011;47325;50.506;4.472;2023-02-28T20:27:38;4.00;;;3.00;;
61460;SDS011;47325;50.506;4.472;2023-02-28T20:33:22;4.00;;;3.10;;
61460;SDS011;47325;50.506;4.472;2023-02-28T20:39:06;4.70;;;3.40;;
61460;SDS011;47325;50.506;4.472;2023-02-28T20:44:50;4.40;;;3.10;;
61460;SDS011;47325;50.506;4.472;2023-02-28T20:50:33;3.90;;;3.00;;
61460;SDS011;47325;50.506;4.472;2023-02-28T20:56:19;4.30;;;3.20;;
61460;SDS011;47325;50.506;4.472;2023-02-28T21:02:04;4.40;;;3.30;;
61460;SDS011;47325;50.506;4.472;2023-02-28T21:07:49;4.70;;;3.50;;
61460;SDS011;47325;50.506;4.472;2023-02-28T21:13:32;5.10;;;3.40;;
61460;SDS011;47325;50.506;4.472;2023-02-28T21:19:16;5.10;;;3.40;;
61460;SDS011;47325;50.506;4.472;2023-02-28T21:25:00;6.60;;;4.00;;
61460;SDS011;47325;50.506;4.472;2023-02-28T21:30:44;5.40;;;4.00;;
61460;SDS011;47325;50.506;4.472;2023-02-28T21:36:28;5.80;;;4.10;;
61460;SDS011;47325;50.506;4.472;2023-02-28T21:42:14;5.70;;;3.80;;
61460;SDS011;47325;50.506;4.472;2023-02-28T21:47:58;7.10;;;4.20;;
61460;SDS011;47325;50.506;4.472;2023-02-28T21:53:41;6.00;;;4.10;;
61460;SDS011;47325;50.506;4.472;2023-02-28T21:59:25;6.60;;;4.00;;
61460;SDS011;47325;50.506;4.472;2023-02-28T22:05:09;5.90;;;4.10;;
61460;SDS011;47325;50.506;4.472;2023-02-28T22:10:53;7.80;;;4.50;;
61460;SDS011;47325;50.506;4.472;2023-02-28T22:16:37;6.50;;;4.40;;
61460;SDS011;47325;50.506;4.472;2023-02-28T22:22:35;5.50;;;4.10;;
61460;SDS011;47325;50.506;4.472;2023-02-28T22:28:19;6.50;;;4.70;;
61460;SDS011;47325;50.506;4.472;2023-02-28T22:34:04;5.80;;;4.10;;
61460;SDS011;47325;50.506;4.472;2023-02-28T22:39:48;6.00;;;4.20;;
61460;SDS011;47325;50.506;4.472;2023-02-28T22:45:33;5.70;;;4.30;;
61460;SDS011;47325;50.506;4.472;2023-02-28T22:51:18;5.80;;;4.20;;
61460;SDS011;47325;50.506;4.472;2023-02-28T22:57:03;6.70;;;4.60;;
61460;SDS011;47325;50.506;4.472;2023-02-28T23:02:47;7.00;;;4.30;;
61460;SDS011;47325;50.506;4.472;2023-02-28T23:08:30;5.90;;;4.40;;
61460;SDS011;47325;50.506;4.472;2023-02-28T23:14:19;6.40;;;4.50;;
61460;SDS011;47325;50.506;4.472;2023-02-28T23:20:04;6.50;;;4.70;;
61460;SDS011;47325;50.506;4.472;2023-02-28T23:25:48;6.60;;;5.00;;
61460;SDS011;47325;50.506;4.472;2023-02-28T23:31:32;6.20;;;4.60;;
61460;SDS011;47325;50.506;4.472;2023-02-28T23:37:16;7.20;;;4.50;;
61460;SDS011;47325;50.506;4.472;2023-02-28T23:42:59;7.00;;;4.80;;
61460;SDS011;47325;50.506;4.472;2023-02-28T23:48:44;6.50;;;4.70;;
61460;SDS011;47325;50.506;4.472;2023-02-28T23:54:27;6.70;;;5.00;;
